Laguna Niguel, California
Current Conditions -  °F | °C
As of 1:53 PM on Saturday 25 Oct 2014 (Local Time) from KSNA Reporting Station
Scattered Clouds Scattered Clouds  
Wind Chill: 80°   Ceiling: Unl
Heat Index: 80°   Visibility: 10mi
Dew Point: 54°   Wind: 8mph
Humidity: 40%   Direction: 250°WSW
Pressure: 30.02"   Gusts: NA
Location:  33.56°N, 117.7°W
Report Text: KSNA 252053Z 25007KT 10SM FEW014 SCT100 SCT250 27/12 A3002 RMK AO2 SLP165 T02670122 57009
Loading
Personal Weather Stations






























Interactive Weather Map New forecast layout! Learn more

10-Day Weather Forecast

Advertisements
Track Severe Weather on mobile